createdAt,value
2018-12-12T00:00:32.087Z,95959.83
2018-12-12T00:01:34.528Z,95956.47
2018-12-12T00:02:37.050Z,95952.70
2018-12-12T00:03:39.489Z,95956.80
2018-12-12T00:04:41.959Z,95956.61
2018-12-12T00:05:44.423Z,95960.51
2018-12-12T00:06:46.873Z,95955.31
2018-12-12T00:07:49.310Z,95953.33
2018-12-12T00:08:51.737Z,95951.36
2018-12-12T00:09:54.195Z,95949.19
2018-12-12T00:10:56.651Z,95955.04
2018-12-12T00:11:59.084Z,95952.84
2018-12-12T00:13:01.528Z,95951.77
2018-12-12T00:14:04.139Z,95950.56
2018-12-12T00:15:06.688Z,95942.67
2018-12-12T00:16:09.126Z,95952.30
2018-12-12T00:17:11.566Z,95945.90
2018-12-12T00:18:14.046Z,95951.77
2018-12-12T00:19:16.479Z,95945.27
2018-12-12T00:20:18.938Z,95953.77
2018-12-12T00:21:21.392Z,95948.06
2018-12-12T00:22:23.839Z,95954.13
2018-12-12T00:23:26.277Z,95955.33
2018-12-12T00:24:28.825Z,95952.91
2018-12-12T00:25:31.282Z,95950.31
2018-12-12T00:26:33.760Z,95950.66
2018-12-12T00:27:36.197Z,95944.38
2018-12-12T00:28:38.645Z,95949.11
2018-12-12T00:29:41.091Z,95948.92
2018-12-12T00:30:43.547Z,95946.07
2018-12-12T00:31:45.995Z,95945.54
2018-12-12T00:32:48.429Z,95946.41
2018-12-12T00:33:50.870Z,95944.11
2018-12-12T00:34:53.307Z,95946.23
2018-12-12T00:35:55.772Z,95948.22
2018-12-12T00:36:58.212Z,95954.83
2018-12-12T00:38:00.656Z,95948.63
2018-12-12T00:39:05.094Z,95946.75
2018-12-12T00:40:07.625Z,95952.42
2018-12-12T00:41:10.124Z,95951.86
2018-12-12T00:42:12.561Z,95952.00
2018-12-12T00:43:14.998Z,95957.20
2018-12-12T00:44:17.432Z,95965.56
2018-12-12T00:45:19.871Z,95963.30
2018-12-12T00:46:22.340Z,95963.64
2018-12-12T00:47:24.799Z,95960.17
2018-12-12T00:48:27.239Z,95960.71
2018-12-12T00:49:29.676Z,95960.80
2018-12-12T00:50:32.130Z,95969.72
2018-12-12T00:51:34.851Z,95970.16
2018-12-12T00:52:37.301Z,95970.06
2018-12-12T00:53:39.733Z,95969.20
2018-12-12T00:54:42.237Z,95964.78
2018-12-12T00:55:44.695Z,95970.84
2018-12-12T00:56:47.143Z,95974.30
2018-12-12T00:57:49.671Z,95966.73
2018-12-12T00:58:52.097Z,95973.78
2018-12-12T00:59:54.531Z,95969.99
2018-12-12T01:00:56.977Z,95972.48
2018-12-12T01:01:59.431Z,95963.28
2018-12-12T01:03:01.910Z,95962.63
2018-12-12T01:04:04.469Z,95967.57
2018-12-12T01:05:07.115Z,95969.53
2018-12-12T01:06:09.546Z,95969.34
2018-12-12T01:07:12.007Z,95965.44
2018-12-12T01:08:14.461Z,95972.58
2018-12-12T01:09:16.887Z,95972.56
2018-12-12T01:10:19.347Z,95974.40
2018-12-12T01:13:02.327Z,95971.80
2018-12-12T01:14:04.783Z,95969.20
2018-12-12T01:15:07.226Z,95969.28
2018-12-12T01:16:09.755Z,95970.06
2018-12-12T01:17:12.183Z,95977.75
2018-12-12T01:18:14.636Z,95971.36
2018-12-12T01:19:17.066Z,95973.77
2018-12-12T01:20:19.510Z,95979.69
2018-12-12T01:21:21.965Z,95979.58
2018-12-12T01:22:24.398Z,95985.23
2018-12-12T01:23:26.844Z,95982.97
2018-12-12T01:24:29.311Z,95988.37
2018-12-12T01:25:31.762Z,95989.04
2018-12-12T01:26:34.200Z,95984.70
2018-12-12T01:27:36.633Z,95990.14
2018-12-12T01:28:39.073Z,95987.13
2018-12-12T01:29:41.610Z,95988.96
2018-12-12T01:30:44.047Z,95986.03
2018-12-12T01:31:46.481Z,95988.42
2018-12-12T01:32:48.912Z,95988.53
2018-12-12T01:33:51.568Z,95981.61
2018-12-12T01:34:54.067Z,95984.21
2018-12-12T01:35:56.501Z,95986.50
2018-12-12T01:36:59.116Z,95985.30
2018-12-12T01:38:01.567Z,95984.08
2018-12-12T01:39:06.574Z,95983.17
2018-12-12T01:40:09.011Z,95984.37
2018-12-12T01:41:11.554Z,95981.24
2018-12-12T01:42:13.988Z,95983.52
2018-12-12T01:43:16.424Z,95979.94
2018-12-12T01:44:18.881Z,95978.64
2018-12-12T01:45:21.331Z,95979.84
2018-12-12T01:46:23.778Z,95978.30
2018-12-12T01:47:26.206Z,95981.03
2018-12-12T01:48:28.661Z,95976.91
2018-12-12T01:49:31.135Z,95977.69
2018-12-12T01:50:33.610Z,95975.84
2018-12-12T01:51:36.060Z,95982.65
2018-12-12T01:52:38.487Z,95980.19
2018-12-12T01:53:40.928Z,95979.31
2018-12-12T01:54:43.399Z,95982.55
2018-12-12T01:55:45.855Z,95976.06
2018-12-12T01:56:48.288Z,95979.09
2018-12-12T01:57:50.726Z,95975.63
2018-12-12T01:58:53.163Z,95977.06
2018-12-12T01:59:55.708Z,95971.61
2018-12-12T02:00:58.139Z,95978.22
2018-12-12T02:02:00.567Z,95970.84
2018-12-12T02:03:03.009Z,95970.52
2018-12-12T02:04:05.644Z,95975.18
2018-12-12T02:05:08.095Z,95976.27
2018-12-12T02:06:10.551Z,95973.77
2018-12-12T02:07:12.989Z,95978.88
2018-12-12T02:08:15.508Z,95975.63
2018-12-12T02:09:17.942Z,95981.59
2018-12-12T02:10:20.409Z,95975.75
2018-12-12T02:11:22.982Z,95983.41
2018-12-12T02:12:25.419Z,95977.88
2018-12-12T02:13:34.679Z,95981.14
2018-12-12T02:14:37.111Z,95978.66
2018-12-12T02:15:39.570Z,95984.09
2018-12-12T02:16:42.028Z,95976.37
2018-12-12T02:17:44.460Z,95978.39
2018-12-12T02:18:46.967Z,95978.39
2018-12-12T02:19:49.399Z,95977.75
2018-12-12T02:20:51.852Z,95976.65
2018-12-12T02:21:54.309Z,95977.67
2018-12-12T02:22:56.741Z,95968.43
2018-12-12T02:23:59.184Z,95967.57
2018-12-12T02:25:01.612Z,95971.03
2018-12-12T02:26:04.084Z,95966.73
2018-12-12T02:27:06.550Z,95966.50
2018-12-12T02:28:09.079Z,95960.88
2018-12-12T02:29:11.508Z,95959.47
2018-12-12T02:30:14.133Z,95960.42
2018-12-12T02:31:16.583Z,95964.77
2018-12-12T02:32:19.035Z,95964.66
2018-12-12T02:33:21.477Z,95964.42
2018-12-12T02:34:23.907Z,95967.26
2018-12-12T02:35:26.352Z,95962.78
2018-12-12T02:36:28.808Z,95963.55
2018-12-12T02:37:31.256Z,95963.98
2018-12-12T02:38:33.703Z,95963.20
2018-12-12T02:39:36.150Z,95958.00
2018-12-12T02:40:38.584Z,95958.77
2018-12-12T02:41:41.042Z,95952.91
2018-12-12T02:42:43.527Z,95959.74
2018-12-12T02:43:46.067Z,95956.17
2018-12-12T02:44:48.509Z,95956.70
2018-12-12T02:45:51.029Z,95955.83
2018-12-12T02:46:53.482Z,95954.78
2018-12-12T02:47:55.951Z,95951.23
2018-12-12T02:48:58.389Z,95947.66
2018-12-12T02:50:00.833Z,95945.50
2018-12-12T02:51:03.275Z,95952.09
2018-12-12T02:52:05.725Z,95946.48
2018-12-12T02:53:08.193Z,95945.80
2018-12-12T02:54:10.645Z,95941.83
2018-12-12T02:55:13.077Z,95941.72
2018-12-12T02:56:15.498Z,95947.49
2018-12-12T02:57:17.946Z,95946.21
2018-12-12T02:58:20.407Z,95945.55
2018-12-12T02:59:22.847Z,95944.15
2018-12-12T03:00:25.318Z,95943.91
2018-12-12T03:01:27.748Z,95956.59
2018-12-12T03:02:30.284Z,95951.06
2018-12-12T03:03:32.770Z,95927.00
2018-12-12T03:04:35.204Z,95947.42
2018-12-12T03:05:37.660Z,95950.02
2018-12-12T03:06:40.211Z,95946.20
2018-12-12T03:07:42.698Z,95950.62
2018-12-12T03:08:45.156Z,95941.81
2018-12-12T03:09:47.597Z,95943.88
2018-12-12T03:10:50.031Z,95941.27
2018-12-12T03:11:52.458Z,95950.54
2018-12-12T03:12:54.933Z,95947.73
2018-12-12T03:13:57.411Z,95949.08
2018-12-12T03:14:59.855Z,95948.75
2018-12-12T03:16:02.296Z,95950.28
2018-12-12T03:17:04.728Z,95950.20
2018-12-12T03:18:07.187Z,95956.52
2018-12-12T03:19:09.708Z,95950.02
2018-12-12T03:20:12.236Z,95951.08
2018-12-12T03:21:14.812Z,95952.04
2018-12-12T03:22:17.239Z,95952.04
2018-12-12T03:23:19.698Z,95953.15
2018-12-12T03:24:22.154Z,95961.90
2018-12-12T03:25:24.601Z,95962.70
2018-12-12T03:26:27.030Z,95960.42
2018-12-12T03:27:29.470Z,95962.50
2018-12-12T03:28:31.928Z,95958.69
2018-12-12T03:29:34.369Z,95956.11
2018-12-12T03:30:36.813Z,95962.41
2018-12-12T03:31:39.249Z,95960.54
2018-12-12T03:32:41.701Z,95959.76
2018-12-12T03:33:44.158Z,95955.23
2018-12-12T03:34:46.600Z,95958.69
2018-12-12T03:35:49.040Z,95957.17
2018-12-12T03:36:51.468Z,95956.72
2018-12-12T03:37:53.906Z,95953.70
2018-12-12T03:38:56.351Z,95955.23
2018-12-12T03:39:59.296Z,95957.30
2018-12-12T03:41:02.052Z,95956.44
2018-12-12T03:42:04.579Z,95956.09
2018-12-12T03:43:07.011Z,95951.77
2018-12-12T03:44:09.486Z,95951.09
2018-12-12T03:45:12.084Z,95951.14
2018-12-12T03:46:14.521Z,95948.74
2018-12-12T03:47:16.968Z,95948.21
2018-12-12T03:48:21.408Z,95951.34
2018-12-12T03:49:23.860Z,95944.08
2018-12-12T03:50:26.307Z,95949.16
2018-12-12T03:51:28.748Z,95950.41
2018-12-12T03:52:31.743Z,95947.94
2018-12-12T03:53:34.187Z,95948.81
2018-12-12T03:54:36.651Z,95943.52
2018-12-12T03:55:39.117Z,95950.55
2018-12-12T03:56:41.558Z,95944.16
2018-12-12T03:57:43.995Z,95937.47
2018-12-12T03:58:46.424Z,95942.00
2018-12-12T03:59:48.887Z,95943.19
2018-12-12T04:00:51.440Z,95944.81
2018-12-12T04:01:53.887Z,95931.16
2018-12-12T04:02:56.323Z,95940.16
2018-12-12T04:03:58.757Z,95933.56
2018-12-12T04:05:01.226Z,95940.78
2018-12-12T04:06:03.667Z,95941.64
2018-12-12T04:07:06.223Z,95939.83
2018-12-12T04:08:08.660Z,95943.09
2018-12-12T04:09:11.103Z,95946.46
2018-12-12T04:10:13.545Z,95939.54
2018-12-12T04:11:15.988Z,95942.25
2018-12-12T04:12:18.419Z,95947.44
2018-12-12T04:13:20.863Z,95938.76
2018-12-12T04:14:23.304Z,95938.95
2018-12-12T04:15:25.754Z,95943.28
2018-12-12T04:16:28.471Z,95935.83
2018-12-12T04:17:30.903Z,95948.06
2018-12-12T04:18:33.439Z,95945.99
2018-12-12T04:19:35.879Z,95944.16
2018-12-12T04:20:38.335Z,95944.59
2018-12-12T04:21:40.794Z,95944.50
2018-12-12T04:22:43.224Z,95945.61
2018-12-12T04:23:45.669Z,95945.94
2018-12-12T04:24:48.391Z,95939.74
2018-12-12T04:25:50.851Z,95946.77
2018-12-12T04:26:53.317Z,95941.91
2018-12-12T04:27:55.761Z,95944.83
2018-12-12T04:28:58.219Z,95938.77
2018-12-12T04:30:00.720Z,95941.81
2018-12-12T04:31:03.175Z,95943.11
2018-12-12T04:32:05.632Z,95938.25
2018-12-12T04:33:08.073Z,95941.28
2018-12-12T04:34:10.517Z,95944.17
2018-12-12T04:35:12.957Z,95945.45
2018-12-12T04:36:15.412Z,95948.81
2018-12-12T04:37:17.890Z,95939.50
2018-12-12T04:38:20.319Z,95943.86
2018-12-12T04:39:22.769Z,95947.44
2018-12-12T04:40:25.209Z,95945.47
2018-12-12T04:41:27.664Z,95936.17
2018-12-12T04:42:30.122Z,95936.59
2018-12-12T04:43:32.563Z,95943.97
2018-12-12T04:44:35.059Z,95941.05
2018-12-12T04:45:37.491Z,95944.42
2018-12-12T04:46:39.972Z,95939.02
2018-12-12T04:47:42.432Z,95942.05
2018-12-12T04:48:44.870Z,95939.70
2018-12-12T04:49:47.312Z,95945.30
2018-12-12T04:50:49.747Z,95940.52
2018-12-12T04:51:52.234Z,95940.95
2018-12-12T04:52:54.678Z,95944.55
2018-12-12T04:53:57.118Z,95943.55
2018-12-12T04:54:59.564Z,95941.62
2018-12-12T04:56:02.025Z,95946.05
2018-12-12T04:57:04.484Z,95940.18
2018-12-12T04:58:06.919Z,95938.44
2018-12-12T04:59:09.824Z,95946.04
2018-12-12T05:00:12.344Z,95946.46
2018-12-12T05:01:14.882Z,95951.33
2018-12-12T05:02:19.311Z,95947.19
2018-12-12T05:03:21.759Z,95957.67
2018-12-12T05:04:24.196Z,95953.24
2018-12-12T05:05:26.648Z,95957.33
2018-12-12T05:06:29.093Z,95955.84
2018-12-12T05:07:31.547Z,95955.73
2018-12-12T05:08:33.997Z,95957.38
2018-12-12T05:09:36.428Z,95953.49
2018-12-12T05:10:38.865Z,95956.38
2018-12-12T05:11:41.315Z,95951.27
2018-12-12T05:12:43.769Z,95955.73
2018-12-12T05:13:46.224Z,95951.92
2018-12-12T05:14:48.666Z,95959.50
2018-12-12T05:15:51.095Z,95963.71
2018-12-12T05:16:53.619Z,95964.50
2018-12-12T05:17:56.076Z,95963.80
2018-12-12T05:18:58.518Z,95957.50
2018-12-12T05:20:00.952Z,95958.00
2018-12-12T05:21:03.391Z,95959.63
2018-12-12T05:22:05.845Z,95958.77
2018-12-12T05:23:08.320Z,95958.70
2018-12-12T05:24:10.771Z,95958.94
2018-12-12T05:25:13.220Z,95956.25
2018-12-12T05:26:15.656Z,95957.83
2018-12-12T05:27:18.086Z,95956.94
2018-12-12T05:28:20.558Z,95957.66
2018-12-12T05:29:23.015Z,95962.64
2018-12-12T05:30:26.348Z,95960.75
2018-12-12T05:31:28.799Z,95961.09
2018-12-12T05:32:31.263Z,95955.90
2018-12-12T05:33:33.723Z,95959.01
2018-12-12T05:34:36.185Z,95959.01
2018-12-12T05:35:38.630Z,95956.94
2018-12-12T05:36:41.059Z,95958.42
2018-12-12T05:37:50.635Z,95959.54
2018-12-12T05:38:47.995Z,95962.67
2018-12-12T05:39:50.430Z,95961.55
2018-12-12T05:40:52.877Z,95956.52
2018-12-12T05:41:55.315Z,95962.92
2018-12-12T05:42:57.764Z,95960.07
2018-12-12T05:44:00.222Z,95961.05
2018-12-12T05:45:02.788Z,95965.73
2018-12-12T05:46:05.212Z,95961.63
2018-12-12T05:47:07.663Z,95958.86
2018-12-12T05:48:10.118Z,95964.34
2018-12-12T05:49:12.649Z,95960.05
2018-12-12T05:50:15.101Z,95964.92
2018-12-12T05:51:17.533Z,95962.20
2018-12-12T05:52:19.975Z,95962.83
2018-12-12T05:53:22.420Z,95963.53
2018-12-12T05:54:25.577Z,95960.40
2018-12-12T05:55:28.862Z,95957.66
2018-12-12T05:56:31.532Z,95965.27
2018-12-12T05:57:33.978Z,95958.86
2018-12-12T05:58:36.428Z,95957.80
2018-12-12T05:59:38.879Z,95960.93
2018-12-12T06:00:41.327Z,95958.95
2018-12-12T06:01:43.772Z,95961.11
2018-12-12T06:02:46.216Z,95961.32
2018-12-12T06:03:48.647Z,95960.88
2018-12-12T06:04:51.111Z,95964.36
2018-12-12T06:05:53.548Z,95969.47
2018-12-12T06:06:55.983Z,95966.98
2018-12-12T06:07:58.434Z,95962.55
2018-12-12T06:09:00.901Z,95970.20
2018-12-12T06:10:05.088Z,95968.47
2018-12-12T06:11:07.557Z,95966.02
2018-12-12T06:12:10.004Z,95967.31
2018-12-12T06:13:12.453Z,95979.38
2018-12-12T06:14:14.906Z,95970.46
2018-12-12T06:15:17.371Z,95976.01
2018-12-12T06:16:19.844Z,95974.18
2018-12-12T06:17:22.281Z,95974.59
2018-12-12T06:18:24.744Z,95975.13
2018-12-12T06:19:27.186Z,95970.55
2018-12-12T06:20:29.650Z,95971.23
2018-12-12T06:21:32.114Z,95971.06
2018-12-12T06:22:37.642Z,95974.34
2018-12-12T06:23:39.323Z,95975.66
2018-12-12T06:24:41.857Z,95960.81
2018-12-12T06:25:44.327Z,95978.49
2018-12-12T06:26:46.842Z,95979.58
2018-12-12T06:27:49.296Z,95975.69
2018-12-12T06:28:51.732Z,95979.39
2018-12-12T06:29:54.227Z,95974.38
2018-12-12T06:30:56.699Z,95975.33
2018-12-12T06:31:59.152Z,95967.50
2018-12-12T06:33:01.587Z,95969.52
2018-12-12T06:34:04.027Z,95975.31
2018-12-12T06:35:06.594Z,95979.35
2018-12-12T06:36:09.048Z,95973.92
2018-12-12T06:37:11.518Z,95975.10
2018-12-12T06:38:13.976Z,95985.41
2018-12-12T06:39:16.551Z,95983.42
2018-12-12T06:40:19.299Z,95976.94
2018-12-12T06:41:21.754Z,95978.08
2018-12-12T06:42:24.204Z,95979.88
2018-12-12T06:43:26.656Z,95979.12
2018-12-12T06:44:29.123Z,95979.14
2018-12-12T06:45:31.577Z,95982.17
2018-12-12T06:46:34.044Z,95983.73
2018-12-12T06:47:36.507Z,95981.72
2018-12-12T06:48:38.958Z,95975.94
2018-12-12T06:49:41.452Z,95982.09
2018-12-12T06:50:43.893Z,95980.78
2018-12-12T06:51:46.340Z,95978.95
2018-12-12T06:52:48.807Z,95986.84
2018-12-12T06:53:51.263Z,95984.39
2018-12-12T06:54:53.698Z,95983.55
2018-12-12T06:55:56.178Z,95986.64
2018-12-12T06:56:58.654Z,95990.30
2018-12-12T06:58:01.112Z,95986.59
2018-12-12T06:59:03.560Z,95996.35
2018-12-12T07:00:09.907Z,95988.16
2018-12-12T07:01:12.346Z,95988.16
2018-12-12T07:02:14.799Z,95991.42
2018-12-12T07:03:17.249Z,95986.66
2018-12-12T07:04:19.689Z,95983.03
2018-12-12T07:05:22.133Z,95992.19
2018-12-12T07:06:24.659Z,95991.34
2018-12-12T07:07:27.192Z,95993.09
2018-12-12T07:08:29.630Z,95997.84
2018-12-12T07:09:32.107Z,95992.55
2018-12-12T07:10:34.559Z,95988.66
2018-12-12T07:11:37.099Z,95995.69
2018-12-12T07:12:39.584Z,95993.95
2018-12-12T07:13:42.037Z,95994.11
2018-12-12T07:14:44.484Z,95992.98
2018-12-12T07:15:46.922Z,95989.06
2018-12-12T07:16:49.397Z,95996.98
2018-12-12T07:17:51.862Z,95994.94
2018-12-12T07:18:54.792Z,96001.50
2018-12-12T07:19:57.229Z,95997.28
2018-12-12T07:20:59.679Z,95993.41
2018-12-12T07:22:02.112Z,95996.91
2018-12-12T07:23:04.554Z,95992.72
2018-12-12T07:24:07.016Z,95996.80
2018-12-12T07:25:09.475Z,95998.12
2018-12-12T07:26:11.915Z,95993.43
2018-12-12T07:27:14.353Z,95992.98
2018-12-12T07:28:16.804Z,95997.83
2018-12-12T07:29:19.255Z,95992.43
2018-12-12T07:30:21.687Z,95996.00
2018-12-12T07:31:24.149Z,95993.13
2018-12-12T07:32:26.595Z,95995.41
2018-12-12T07:33:29.053Z,95994.70
2018-12-12T07:34:31.506Z,95990.92
2018-12-12T07:35:33.950Z,95996.89
2018-12-12T07:36:36.482Z,95990.20
2018-12-12T07:37:38.935Z,95988.23
2018-12-12T07:38:41.401Z,95983.30
2018-12-12T07:39:43.939Z,95991.51
2018-12-12T07:40:46.382Z,95985.45
2018-12-12T07:41:48.832Z,95988.14
2018-12-12T07:42:51.303Z,95986.59
2018-12-12T07:43:53.786Z,95983.02
2018-12-12T07:44:56.239Z,95987.38
2018-12-12T07:45:58.717Z,95987.80
2018-12-12T07:47:01.249Z,95984.39
2018-12-12T07:48:03.700Z,95982.23
2018-12-12T07:49:06.269Z,95991.97
2018-12-12T07:50:08.719Z,95985.34
2018-12-12T07:51:11.204Z,95989.53
2018-12-12T07:52:13.652Z,95994.88
2018-12-12T07:53:16.111Z,95992.69
2018-12-12T07:54:18.573Z,95994.02
2018-12-12T07:55:21.027Z,96000.63
2018-12-12T07:56:23.476Z,96004.67
2018-12-12T07:57:25.909Z,95987.42
2018-12-12T07:58:28.351Z,95996.61
2018-12-12T07:59:30.835Z,95994.13
2018-12-12T08:00:33.300Z,95993.71
2018-12-12T08:01:35.753Z,96000.88
2018-12-12T08:02:38.195Z,95996.15
2018-12-12T08:03:40.639Z,95995.38
2018-12-12T08:04:43.107Z,95990.65
2018-12-12T08:05:45.639Z,95992.05
2018-12-12T08:06:48.091Z,95994.20
2018-12-12T08:07:50.537Z,95994.41
2018-12-12T08:08:52.971Z,95992.25
2018-12-12T08:09:55.430Z,95992.32
2018-12-12T08:10:57.889Z,95988.05
2018-12-12T08:12:00.373Z,95987.42
2018-12-12T08:13:02.831Z,95985.73
2018-12-12T08:14:05.286Z,95993.53
2018-12-12T08:15:07.735Z,95991.37
2018-12-12T08:16:10.268Z,95990.18
2018-12-12T08:17:12.702Z,95988.77
2018-12-12T08:18:15.132Z,95995.08
2018-12-12T08:19:17.564Z,95991.39
2018-12-12T08:20:20.007Z,95994.86
2018-12-12T08:21:22.436Z,95992.27
2018-12-12T08:22:24.906Z,95996.73
2018-12-12T08:23:27.712Z,95996.29
2018-12-12T08:24:30.195Z,95990.23
2018-12-12T08:25:32.946Z,95994.23
2018-12-12T08:26:35.472Z,95992.58
2018-12-12T08:27:39.311Z,95997.68
2018-12-12T08:28:42.074Z,95995.73
2018-12-12T08:29:44.503Z,95998.30
2018-12-12T08:30:46.970Z,95998.40
2018-12-12T08:31:50.638Z,96004.98
2018-12-12T08:32:53.099Z,96006.61
2018-12-12T08:33:55.556Z,95997.23
2018-12-12T08:34:58.014Z,96000.72
2018-12-12T08:36:00.481Z,96006.13
2018-12-12T08:37:02.923Z,96003.52
2018-12-12T08:38:05.360Z,96007.86
2018-12-12T08:39:07.803Z,96003.97
2018-12-12T08:40:10.274Z,96012.67
2018-12-12T08:41:12.730Z,96009.40
2018-12-12T08:42:15.176Z,96007.33
2018-12-12T08:43:17.634Z,96003.58
2018-12-12T08:44:20.072Z,96005.15
2018-12-12T08:45:22.527Z,96000.28
2018-12-12T08:46:24.964Z,96005.04
2018-12-12T08:47:27.406Z,96001.77
2018-12-12T08:48:29.843Z,96003.95
2018-12-12T08:49:32.279Z,96009.40
2018-12-12T08:50:34.737Z,96011.38
2018-12-12T08:51:37.184Z,96010.93
2018-12-12T08:52:39.619Z,96014.92
2018-12-12T08:53:42.767Z,96009.63
2018-12-12T08:54:45.231Z,96010.61
2018-12-12T08:55:47.689Z,96011.72
2018-12-12T08:56:51.183Z,96005.53
2018-12-12T08:57:53.639Z,96006.31
2018-12-12T08:58:56.088Z,96009.49
2018-12-12T08:59:58.575Z,96009.50
2018-12-12T09:01:01.031Z,96010.16
2018-12-12T09:02:03.476Z,96009.20
2018-12-12T09:03:05.918Z,96010.80
2018-12-12T09:04:08.357Z,96009.06
2018-12-12T09:05:10.796Z,96009.41
2018-12-12T09:06:13.259Z,96015.14
2018-12-12T09:07:15.726Z,96013.55
2018-12-12T09:08:18.182Z,96006.80
2018-12-12T09:09:20.628Z,96015.39
2018-12-12T09:10:23.071Z,96012.12
2018-12-12T09:11:25.660Z,96018.31
2018-12-12T09:12:28.122Z,96013.20
2018-12-12T09:13:30.608Z,96007.77
2018-12-12T09:14:33.060Z,96019.02
2018-12-12T09:15:35.511Z,96016.86
2018-12-12T09:16:37.971Z,96015.77
2018-12-12T09:17:40.483Z,96019.66
2018-12-12T09:18:42.943Z,96009.60
2018-12-12T09:19:45.394Z,96015.66
2018-12-12T09:20:47.836Z,96010.98
2018-12-12T09:21:50.307Z,96010.11
2018-12-12T09:22:52.801Z,96012.94
2018-12-12T09:23:55.406Z,96012.27
2018-12-12T09:24:57.910Z,96011.75
2018-12-12T09:26:00.365Z,96019.00
2018-12-12T09:27:02.874Z,96014.70
2018-12-12T09:28:05.457Z,96011.16
2018-12-12T09:29:07.992Z,96010.20
2018-12-12T09:30:10.705Z,96010.09
2018-12-12T09:31:13.311Z,96014.17
2018-12-12T09:32:15.791Z,96014.50
2018-12-12T09:33:24.425Z,96004.36
2018-12-12T09:34:22.740Z,96007.25
2018-12-12T09:35:25.242Z,96008.04
2018-12-12T09:36:27.704Z,96006.87
2018-12-12T09:37:30.343Z,96010.11
2018-12-12T09:38:32.809Z,96014.24
2018-12-12T09:39:35.264Z,96007.70
2018-12-12T09:40:37.948Z,96008.79
2018-12-12T09:41:40.411Z,96008.26
2018-12-12T09:42:42.876Z,96000.73
2018-12-12T09:43:45.319Z,95996.30
2018-12-12T09:44:47.757Z,95995.11
2018-12-12T09:45:50.218Z,96003.45
2018-12-12T09:46:52.681Z,95995.21
2018-12-12T09:47:55.156Z,96000.22
2018-12-12T09:48:57.636Z,96004.47
2018-12-12T09:50:00.091Z,95994.93
2018-12-12T09:51:07.008Z,96000.75
2018-12-12T09:52:07.106Z,95994.70
2018-12-12T09:53:09.584Z,95999.17
2018-12-12T09:54:12.112Z,95999.16
2018-12-12T09:55:14.550Z,96000.23
2018-12-12T09:56:17.014Z,95993.44
2018-12-12T09:57:19.482Z,95994.61
2018-12-12T09:58:21.923Z,95993.45
2018-12-12T09:59:24.364Z,95997.35
2018-12-12T10:00:26.911Z,95997.16
2018-12-12T10:01:30.382Z,95993.45
2018-12-12T10:02:32.832Z,95994.95
2018-12-12T10:03:35.268Z,95993.64
2018-12-12T10:04:37.713Z,95994.08
2018-12-12T10:05:40.275Z,95992.86
2018-12-12T10:06:42.736Z,95992.22
2018-12-12T10:07:45.211Z,95991.03
2018-12-12T10:08:47.645Z,95992.53
2018-12-12T10:09:50.084Z,95991.47
2018-12-12T10:10:52.525Z,95994.95
2018-12-12T10:11:54.979Z,95995.80
2018-12-12T10:12:57.428Z,95985.41
2018-12-12T10:13:59.859Z,95991.14
2018-12-12T10:15:02.383Z,95989.93
2018-12-12T10:16:04.822Z,95992.67
2018-12-12T10:17:07.284Z,95988.23
2018-12-12T10:18:09.739Z,95990.16
2018-12-12T10:19:12.179Z,95998.59
2018-12-12T10:20:14.655Z,95988.63
2018-12-12T10:21:17.098Z,95995.70
2018-12-12T10:22:19.557Z,95996.05
2018-12-12T10:23:22.020Z,95986.96
2018-12-12T10:24:24.552Z,95991.44
2018-12-12T10:25:26.992Z,95991.97
2018-12-12T10:26:29.437Z,95990.00
2018-12-12T10:27:31.888Z,95989.47
2018-12-12T10:28:34.340Z,95989.75
2018-12-12T10:29:36.815Z,95990.71
2018-12-12T10:30:39.335Z,95990.42
2018-12-12T10:31:41.791Z,95984.80
2018-12-12T10:32:44.253Z,95983.20
2018-12-12T10:33:46.717Z,95977.86
2018-12-12T10:34:49.181Z,95983.30
2018-12-12T10:35:51.625Z,95986.42
2018-12-12T10:36:54.074Z,95978.72
2018-12-12T10:37:56.690Z,95974.39
2018-12-12T10:38:59.208Z,95977.13
2018-12-12T10:40:01.651Z,95976.89
2018-12-12T10:41:04.081Z,95982.00
2018-12-12T10:42:06.523Z,95976.80
2018-12-12T10:43:08.984Z,95983.31
2018-12-12T10:44:11.432Z,95977.47
2018-12-12T10:45:13.863Z,95974.64
2018-12-12T10:46:16.314Z,95968.90
2018-12-12T10:47:18.753Z,95977.14
2018-12-12T10:48:21.260Z,95975.94
2018-12-12T10:49:23.732Z,95972.36
2018-12-12T10:50:26.454Z,95977.91
2018-12-12T10:51:28.888Z,95975.64
2018-12-12T10:52:31.416Z,95974.21
2018-12-12T10:53:33.872Z,95971.30
2018-12-12T10:54:36.351Z,95973.47
2018-12-12T10:55:38.812Z,95974.64
2018-12-12T10:56:41.520Z,95974.88
2018-12-12T10:57:43.973Z,95967.94
2018-12-12T10:58:50.396Z,95967.30
2018-12-12T10:59:52.856Z,95974.02
2018-12-12T11:02:36.795Z,95974.78
2018-12-12T11:03:44.354Z,95971.84
2018-12-12T11:04:45.927Z,95973.38
2018-12-12T11:05:48.371Z,95974.25
2018-12-12T11:06:50.826Z,95965.47
2018-12-12T11:07:53.270Z,95964.17
2018-12-12T11:08:55.732Z,95968.60
2018-12-12T11:09:58.206Z,95966.74
2018-12-12T11:11:00.646Z,95966.00
2018-12-12T11:12:03.090Z,95967.51
2018-12-12T11:13:05.552Z,95960.37
2018-12-12T11:14:07.993Z,95961.44
2018-12-12T11:15:10.448Z,95958.63
2018-12-12T11:16:12.900Z,95963.41
2018-12-12T11:17:15.337Z,95956.66
2018-12-12T11:18:17.815Z,95957.87
2018-12-12T11:19:20.251Z,95955.83
2018-12-12T11:20:22.696Z,95955.27
2018-12-12T11:21:25.152Z,95957.56
2018-12-12T11:22:27.583Z,95957.12
2018-12-12T11:23:30.036Z,95956.56
2018-12-12T11:24:32.491Z,95958.63
2018-12-12T11:25:34.939Z,95957.87
2018-12-12T11:26:37.424Z,95955.16
2018-12-12T11:27:39.861Z,95960.57
2018-12-12T11:28:42.295Z,95954.53
2018-12-12T11:29:44.782Z,95958.09
2018-12-12T11:30:47.235Z,95959.27
2018-12-12T11:31:49.693Z,95964.48
2018-12-12T11:32:52.131Z,95957.33
2018-12-12T11:33:54.603Z,95954.52
2018-12-12T11:34:57.039Z,95957.33
2018-12-12T11:35:59.490Z,95961.44
2018-12-12T11:37:01.940Z,95960.37
2018-12-12T11:38:04.379Z,95952.66
2018-12-12T11:39:07.211Z,95958.09
2018-12-12T11:40:09.667Z,95956.56
2018-12-12T11:41:12.124Z,95954.39
2018-12-12T11:42:14.563Z,95954.73
2018-12-12T11:43:17.216Z,95954.52
2018-12-12T11:44:19.655Z,95949.75
2018-12-12T11:45:22.127Z,95952.36
2018-12-12T11:46:24.582Z,95949.75
2018-12-12T11:47:27.034Z,95950.19
2018-12-12T11:48:29.471Z,95942.81
2018-12-12T11:49:31.917Z,95946.08
2018-12-12T11:50:34.366Z,95945.75
2018-12-12T11:51:36.833Z,95943.88
2018-12-12T11:52:39.289Z,95949.22
2018-12-12T11:53:41.743Z,95943.78
2018-12-12T11:54:44.290Z,95945.29
2018-12-12T11:55:46.743Z,95945.52
2018-12-12T11:56:49.211Z,95941.52
2018-12-12T11:57:51.675Z,95945.85
2018-12-12T11:58:54.112Z,95941.72
2018-12-12T11:59:56.545Z,95942.25
2018-12-12T12:00:58.995Z,95943.78
2018-12-12T12:02:01.468Z,95940.41
2018-12-12T12:03:03.923Z,95935.31
2018-12-12T12:04:06.370Z,95936.51
2018-12-12T12:05:08.803Z,95939.11
2018-12-12T12:06:11.255Z,95935.88
2018-12-12T12:07:13.711Z,95937.38
2018-12-12T12:08:16.158Z,95933.37
2018-12-12T12:09:18.603Z,95929.56
2018-12-12T12:10:21.041Z,95932.30
2018-12-12T12:11:23.475Z,95935.44
2018-12-12T12:12:25.940Z,95935.88
2018-12-12T12:13:28.404Z,95936.08
2018-12-12T12:14:30.845Z,95932.30
2018-12-12T12:15:33.279Z,95935.01
2018-12-12T12:16:35.740Z,95939.11
2018-12-12T12:17:38.199Z,95932.41